sensor_id;sensor_type;location;lat;lon;timestamp;pressure;altitude;pressure_sealevel;temperature;humidity
68141;BME280;54941;52.220;104.306;2023-06-24T00:00:17;95519.88;;;17.27;70.18
68141;BME280;54941;52.220;104.306;2023-06-24T00:02:45;95522.56;;;17.41;69.80
68141;BME280;54941;52.220;104.306;2023-06-24T00:05:12;95514.06;;;17.49;69.22
68141;BME280;54941;52.220;104.306;2023-06-24T00:07:38;95521.78;;;17.39;69.99
68141;BME280;54941;52.220;104.306;2023-06-24T00:10:05;95531.69;;;17.66;69.19
68141;BME280;54941;52.220;104.306;2023-06-24T00:12:32;95532.94;;;17.32;70.00
68141;BME280;54941;52.220;104.306;2023-06-24T00:14:58;95524.91;;;17.46;69.26
68141;BME280;54941;52.220;104.306;2023-06-24T00:17:24;95526.63;;;17.33;70.35
68141;BME280;54941;52.220;104.306;2023-06-24T00:19:52;95535.13;;;17.39;68.94
68141;BME280;54941;52.220;104.306;2023-06-24T00:22:18;95538.38;;;17.44;69.30
68141;BME280;54941;52.220;104.306;2023-06-24T00:24:45;95542.09;;;17.28;69.70
68141;BME280;54941;52.220;104.306;2023-06-24T00:27:11;95547.44;;;17.56;69.27
68141;BME280;54941;52.220;104.306;2023-06-24T00:29:37;95540.13;;;17.60;68.95
68141;BME280;54941;52.220;104.306;2023-06-24T00:32:04;95539.31;;;17.43;69.57
68141;BME280;54941;52.220;104.306;2023-06-24T00:34:31;95541.28;;;17.84;67.96
68141;BME280;54941;52.220;104.306;2023-06-24T00:36:59;95537.84;;;18.23;66.68
68141;BME280;54941;52.220;104.306;2023-06-24T00:39:25;95539.59;;;18.10;67.20
68141;BME280;54941;52.220;104.306;2023-06-24T00:41:51;95533.34;;;18.24;65.92
68141;BME280;54941;52.220;104.306;2023-06-24T00:44:18;95537.56;;;18.14;65.94
68141;BME280;54941;52.220;104.306;2023-06-24T00:46:44;95546.22;;;18.31;65.28
68141;BME280;54941;52.220;104.306;2023-06-24T00:49:12;95544.06;;;18.24;65.48
68141;BME280;54941;52.220;104.306;2023-06-24T00:51:39;95551.84;;;18.00;66.05
68141;BME280;54941;52.220;104.306;2023-06-24T00:54:07;95538.94;;;18.06;65.39
68141;BME280;54941;52.220;104.306;2023-06-24T00:56:34;95549.44;;;17.67;67.07
68141;BME280;54941;52.220;104.306;2023-06-24T00:59:02;95547.94;;;17.91;66.32
68141;BME280;54941;52.220;104.306;2023-06-24T01:01:30;95551.09;;;18.25;65.49
68141;BME280;54941;52.220;104.306;2023-06-24T01:03:58;95549.34;;;18.38;64.74
68141;BME280;54941;52.220;104.306;2023-06-24T01:06:25;95545.91;;;18.09;65.81
68141;BME280;54941;52.220;104.306;2023-06-24T01:08:52;95546.75;;;18.10;65.62
68141;BME280;54941;52.220;104.306;2023-06-24T01:11:19;95545.59;;;18.41;64.25
68141;BME280;54941;52.220;104.306;2023-06-24T01:13:46;95540.09;;;18.44;64.75
68141;BME280;54941;52.220;104.306;2023-06-24T01:16:20;95552.75;;;18.54;64.61
68141;BME280;54941;52.220;104.306;2023-06-24T01:18:54;95552.00;;;18.52;64.33
68141;BME280;54941;52.220;104.306;2023-06-24T01:21:33;95552.06;;;18.65;63.68
68141;BME280;54941;52.220;104.306;2023-06-24T01:24:17;95549.44;;;18.36;64.97
68141;BME280;54941;52.220;104.306;2023-06-24T01:27:14;95542.66;;;18.45;64.77
68141;BME280;54941;52.220;104.306;2023-06-24T01:30:02;95557.25;;;18.54;64.03
68141;BME280;54941;52.220;104.306;2023-06-24T01:32:38;95564.06;;;17.75;66.64
68141;BME280;54941;52.220;104.306;2023-06-24T01:35:11;95555.06;;;18.05;66.51
68141;BME280;54941;52.220;104.306;2023-06-24T01:37:42;95554.81;;;17.95;67.16
68141;BME280;54941;52.220;104.306;2023-06-24T01:40:12;95548.84;;;18.04;66.24
68141;BME280;54941;52.220;104.306;2023-06-24T01:42:41;95554.25;;;17.76;67.71
68141;BME280;54941;52.220;104.306;2023-06-24T01:45:12;95560.72;;;17.86;67.09
68141;BME280;54941;52.220;104.306;2023-06-24T01:47:44;95550.72;;;17.75;66.66
68141;BME280;54941;52.220;104.306;2023-06-24T01:50:12;95550.91;;;17.72;67.05
68141;BME280;54941;52.220;104.306;2023-06-24T01:52:42;95549.63;;;17.92;66.78
68141;BME280;54941;52.220;104.306;2023-06-24T01:55:10;95557.72;;;18.05;65.83
68141;BME280;54941;52.220;104.306;2023-06-24T01:57:37;95560.16;;;17.81;66.88
68141;BME280;54941;52.220;104.306;2023-06-24T02:00:06;95563.09;;;17.62;67.35
68141;BME280;54941;52.220;104.306;2023-06-24T02:02:34;95562.56;;;17.71;66.32
68141;BME280;54941;52.220;104.306;2023-06-24T02:05:05;95558.97;;;17.57;67.38
68141;BME280;54941;52.220;104.306;2023-06-24T02:07:33;95560.41;;;17.48;67.72
68141;BME280;54941;52.220;104.306;2023-06-24T02:10:00;95561.28;;;17.48;68.56
68141;BME280;54941;52.220;104.306;2023-06-24T02:12:29;95559.38;;;17.65;67.67
68141;BME280;54941;52.220;104.306;2023-06-24T02:14:57;95568.00;;;17.84;67.12
68141;BME280;54941;52.220;104.306;2023-06-24T02:17:25;95565.22;;;17.86;67.76
68141;BME280;54941;52.220;104.306;2023-06-24T02:19:52;95568.38;;;17.78;67.85
68141;BME280;54941;52.220;104.306;2023-06-24T02:22:21;95571.41;;;18.00;67.24
68141;BME280;54941;52.220;104.306;2023-06-24T02:24:48;95566.16;;;17.99;66.88
68141;BME280;54941;52.220;104.306;2023-06-24T02:27:16;95564.53;;;17.82;64.45
68141;BME280;54941;52.220;104.306;2023-06-24T02:29:43;95562.91;;;18.08;64.68
68141;BME280;54941;52.220;104.306;2023-06-24T02:32:10;95559.16;;;18.11;64.30
68141;BME280;54941;52.220;104.306;2023-06-24T02:34:36;95555.63;;;18.10;63.77
68141;BME280;54941;52.220;104.306;2023-06-24T02:37:02;95563.25;;;18.16;63.74
68141;BME280;54941;52.220;104.306;2023-06-24T02:39:30;95561.50;;;17.74;65.22
68141;BME280;54941;52.220;104.306;2023-06-24T02:41:57;95558.16;;;18.26;63.43
68141;BME280;54941;52.220;104.306;2023-06-24T02:44:23;95555.59;;;18.24;64.19
68141;BME280;54941;52.220;104.306;2023-06-24T02:46:50;95559.28;;;18.63;63.02
68141;BME280;54941;52.220;104.306;2023-06-24T02:49:18;95564.59;;;18.50;61.86
68141;BME280;54941;52.220;104.306;2023-06-24T02:51:45;95556.28;;;18.14;63.21
68141;BME280;54941;52.220;104.306;2023-06-24T02:54:12;95554.16;;;18.33;62.53
68141;BME280;54941;52.220;104.306;2023-06-24T02:56:41;95555.88;;;18.34;62.92
68141;BME280;54941;52.220;104.306;2023-06-24T02:59:08;95560.56;;;18.30;62.59
68141;BME280;54941;52.220;104.306;2023-06-24T03:01:36;95563.44;;;18.54;62.41
68141;BME280;54941;52.220;104.306;2023-06-24T03:04:03;95559.88;;;18.41;62.13
68141;BME280;54941;52.220;104.306;2023-06-24T03:06:29;95560.78;;;18.40;62.38
68141;BME280;54941;52.220;104.306;2023-06-24T03:08:56;95560.88;;;18.12;64.36
68141;BME280;54941;52.220;104.306;2023-06-24T03:11:23;95558.75;;;18.17;63.82
68141;BME280;54941;52.220;104.306;2023-06-24T03:13:51;95553.09;;;18.62;62.29
68141;BME280;54941;52.220;104.306;2023-06-24T03:16:17;95556.34;;;18.26;63.20
68141;BME280;54941;52.220;104.306;2023-06-24T03:18:44;95558.19;;;18.67;62.16
68141;BME280;54941;52.220;104.306;2023-06-24T03:21:10;95557.44;;;18.65;63.08
68141;BME280;54941;52.220;104.306;2023-06-24T03:23:37;95559.88;;;18.41;63.77
68141;BME280;54941;52.220;104.306;2023-06-24T03:26:03;95559.66;;;18.44;63.82
68141;BME280;54941;52.220;104.306;2023-06-24T03:28:30;95562.78;;;18.51;63.97
68141;BME280;54941;52.220;104.306;2023-06-24T03:30:58;95563.84;;;18.21;64.90
68141;BME280;54941;52.220;104.306;2023-06-24T03:33:25;95559.75;;;18.43;65.27
68141;BME280;54941;52.220;104.306;2023-06-24T03:35:51;95563.44;;;18.13;66.94
68141;BME280;54941;52.220;104.306;2023-06-24T03:38:17;95562.22;;;18.04;67.10
68141;BME280;54941;52.220;104.306;2023-06-24T03:40:44;95566.63;;;17.91;67.74
68141;BME280;54941;52.220;104.306;2023-06-24T03:43:13;95561.66;;;17.71;68.54
68141;BME280;54941;52.220;104.306;2023-06-24T03:45:38;95564.16;;;17.88;69.01
68141;BME280;54941;52.220;104.306;2023-06-24T03:48:06;95567.38;;;17.93;68.00
68141;BME280;54941;52.220;104.306;2023-06-24T03:50:33;95567.69;;;17.60;69.67
68141;BME280;54941;52.220;104.306;2023-06-24T03:52:59;95563.75;;;17.94;68.17
68141;BME280;54941;52.220;104.306;2023-06-24T03:55:25;95567.47;;;17.63;70.53
68141;BME280;54941;52.220;104.306;2023-06-24T03:57:52;95563.41;;;17.72;70.48
68141;BME280;54941;52.220;104.306;2023-06-24T04:00:18;95567.03;;;17.85;70.97
68141;BME280;54941;52.220;104.306;2023-06-24T04:02:44;95559.84;;;17.57;70.31
68141;BME280;54941;52.220;104.306;2023-06-24T04:05:12;95565.72;;;17.34;72.68
68141;BME280;54941;52.220;104.306;2023-06-24T04:07:39;95562.91;;;17.65;71.17
68141;BME280;54941;52.220;104.306;2023-06-24T04:10:06;95566.59;;;17.34;71.86
68141;BME280;54941;52.220;104.306;2023-06-24T04:12:32;95561.25;;;17.34;71.34
68141;BME280;54941;52.220;104.306;2023-06-24T04:14:59;95564.84;;;17.05;72.81
68141;BME280;54941;52.220;104.306;2023-06-24T04:17:25;95568.84;;;17.12;71.74
68141;BME280;54941;52.220;104.306;2023-06-24T04:19:51;95564.63;;;17.38;70.88
68141;BME280;54941;52.220;104.306;2023-06-24T04:22:20;95573.81;;;17.18;71.93
68141;BME280;54941;52.220;104.306;2023-06-24T04:24:47;95570.69;;;17.26;71.62
68141;BME280;54941;52.220;104.306;2023-06-24T04:27:13;95563.50;;;17.12;71.88
68141;BME280;54941;52.220;104.306;2023-06-24T04:29:39;95567.31;;;17.08;71.88
68141;BME280;54941;52.220;104.306;2023-06-24T04:32:06;95564.97;;;16.87;73.11
68141;BME280;54941;52.220;104.306;2023-06-24T04:34:33;95571.13;;;17.04;72.21
68141;BME280;54941;52.220;104.306;2023-06-24T04:36:59;95573.81;;;16.88;73.17
68141;BME280;54941;52.220;104.306;2023-06-24T04:39:27;95561.41;;;17.03;72.72
68141;BME280;54941;52.220;104.306;2023-06-24T04:41:53;95573.06;;;16.86;73.87
68141;BME280;54941;52.220;104.306;2023-06-24T04:44:20;95565.34;;;16.81;74.50
68141;BME280;54941;52.220;104.306;2023-06-24T04:46:46;95565.69;;;17.05;74.34
68141;BME280;54941;52.220;104.306;2023-06-24T04:49:13;95564.13;;;17.31;72.15
68141;BME280;54941;52.220;104.306;2023-06-24T04:51:39;95564.34;;;17.12;73.00
68141;BME280;54941;52.220;104.306;2023-06-24T04:54:06;95566.78;;;16.87;73.78
68141;BME280;54941;52.220;104.306;2023-06-24T04:56:34;95570.75;;;16.64;75.49
68141;BME280;54941;52.220;104.306;2023-06-24T04:59:00;95571.75;;;16.47;75.59
68141;BME280;54941;52.220;104.306;2023-06-24T05:01:27;95563.41;;;16.38;76.40
68141;BME280;54941;52.220;104.306;2023-06-24T05:03:53;95573.59;;;16.61;75.17
68141;BME280;54941;52.220;104.306;2023-06-24T05:06:19;95570.50;;;16.53;76.30
68141;BME280;54941;52.220;104.306;2023-06-24T05:08:46;95579.47;;;16.98;74.27
68141;BME280;54941;52.220;104.306;2023-06-24T05:11:12;95575.53;;;17.19;73.11
68141;BME280;54941;52.220;104.306;2023-06-24T05:13:40;95572.66;;;17.08;73.21
68141;BME280;54941;52.220;104.306;2023-06-24T05:16:06;95574.84;;;16.40;74.85
68141;BME280;54941;52.220;104.306;2023-06-24T05:18:32;95562.53;;;16.69;74.28
68141;BME280;54941;52.220;104.306;2023-06-24T05:20:59;95558.63;;;16.74;75.29
68141;BME280;54941;52.220;104.306;2023-06-24T05:23:25;95557.81;;;17.18;72.28
68141;BME280;54941;52.220;104.306;2023-06-24T05:25:52;95546.13;;;17.49;72.08
68141;BME280;54941;52.220;104.306;2023-06-24T05:28:18;95551.34;;;17.50;71.68
68141;BME280;54941;52.220;104.306;2023-06-24T05:30:46;95549.16;;;17.57;71.83
68141;BME280;54941;52.220;104.306;2023-06-24T05:33:12;95550.22;;;17.55;72.69
68141;BME280;54941;52.220;104.306;2023-06-24T05:35:39;95550.97;;;17.42;71.00
68141;BME280;54941;52.220;104.306;2023-06-24T05:38:05;95551.88;;;17.71;69.61
68141;BME280;54941;52.220;104.306;2023-06-24T05:40:31;95536.28;;;17.49;70.91
68141;BME280;54941;52.220;104.306;2023-06-24T05:42:58;95554.47;;;17.29;72.18
68141;BME280;54941;52.220;104.306;2023-06-24T05:45:24;95539.72;;;17.37;71.24
68141;BME280;54941;52.220;104.306;2023-06-24T05:47:52;95552.69;;;17.29;72.01
68141;BME280;54941;52.220;104.306;2023-06-24T05:50:18;95543.91;;;17.41;71.95
68141;BME280;54941;52.220;104.306;2023-06-24T05:52:44;95542.75;;;17.17;73.40
68141;BME280;54941;52.220;104.306;2023-06-24T05:55:11;95545.91;;;17.38;72.34
68141;BME280;54941;52.220;104.306;2023-06-24T05:57:37;95545.63;;;17.28;72.97
68141;BME280;54941;52.220;104.306;2023-06-24T06:00:04;95543.25;;;17.52;72.48
68141;BME280;54941;52.220;104.306;2023-06-24T06:02:31;95542.28;;;17.67;72.47
68141;BME280;54941;52.220;104.306;2023-06-24T06:04:59;95540.88;;;17.62;70.42
68141;BME280;54941;52.220;104.306;2023-06-24T06:07:25;95548.63;;;17.08;72.19
68141;BME280;54941;52.220;104.306;2023-06-24T06:09:52;95555.59;;;17.10;74.30
68141;BME280;54941;52.220;104.306;2023-06-24T06:12:18;95546.06;;;17.06;73.50
68141;BME280;54941;52.220;104.306;2023-06-24T06:14:44;95543.50;;;17.19;72.80
68141;BME280;54941;52.220;104.306;2023-06-24T06:17:11;95542.25;;;17.10;73.16
68141;BME280;54941;52.220;104.306;2023-06-24T06:19:38;95541.88;;;16.72;75.79
68141;BME280;54941;52.220;104.306;2023-06-24T06:22:06;95538.41;;;17.00;74.04
68141;BME280;54941;52.220;104.306;2023-06-24T06:24:32;95542.97;;;16.98;73.57
68141;BME280;54941;52.220;104.306;2023-06-24T06:26:59;95536.66;;;17.15;72.79
68141;BME280;54941;52.220;104.306;2023-06-24T06:29:25;95540.53;;;17.09;73.68
68141;BME280;54941;52.220;104.306;2023-06-24T06:31:51;95525.97;;;17.29;74.54
68141;BME280;54941;52.220;104.306;2023-06-24T06:34:18;95528.44;;;17.32;73.83
68141;BME280;54941;52.220;104.306;2023-06-24T06:36:44;95521.28;;;17.47;73.25
68141;BME280;54941;52.220;104.306;2023-06-24T06:39:12;95524.28;;;17.71;71.75
68141;BME280;54941;52.220;104.306;2023-06-24T06:41:38;95522.28;;;17.60;72.18
68141;BME280;54941;52.220;104.306;2023-06-24T06:44:05;95510.72;;;17.60;72.23
68141;BME280;54941;52.220;104.306;2023-06-24T06:46:31;95507.28;;;17.43;72.14
68141;BME280;54941;52.220;104.306;2023-06-24T06:48:58;95503.56;;;17.32;71.32
68141;BME280;54941;52.220;104.306;2023-06-24T06:51:25;95505.78;;;17.25;72.34
68141;BME280;54941;52.220;104.306;2023-06-24T06:53:51;95494.78;;;17.15;73.18
68141;BME280;54941;52.220;104.306;2023-06-24T06:56:23;95501.38;;;17.38;71.35
68141;BME280;54941;52.220;104.306;2023-06-24T06:58:49;95494.91;;;17.28;72.39
68141;BME280;54941;52.220;104.306;2023-06-24T07:01:16;95498.72;;;17.38;72.19
68141;BME280;54941;52.220;104.306;2023-06-24T07:03:42;95499.09;;;17.32;73.25
68141;BME280;54941;52.220;104.306;2023-06-24T07:06:08;95503.47;;;17.33;72.57
68141;BME280;54941;52.220;104.306;2023-06-24T07:08:34;95502.16;;;17.40;72.02
68141;BME280;54941;52.220;104.306;2023-06-24T07:11:01;95498.88;;;17.35;72.57
68141;BME280;54941;52.220;104.306;2023-06-24T07:13:29;95498.22;;;17.46;71.28
68141;BME280;54941;52.220;104.306;2023-06-24T07:15:55;95498.88;;;17.64;72.21
68141;BME280;54941;52.220;104.306;2023-06-24T07:18:21;95499.09;;;17.75;71.34
68141;BME280;54941;52.220;104.306;2023-06-24T07:20:48;95501.22;;;18.11;70.62
68141;BME280;54941;52.220;104.306;2023-06-24T07:23:14;95503.94;;;17.97;70.94
68141;BME280;54941;52.220;104.306;2023-06-24T07:25:40;95500.84;;;18.03;70.09
68141;BME280;54941;52.220;104.306;2023-06-24T07:28:07;95496.88;;;17.96;70.25
68141;BME280;54941;52.220;104.306;2023-06-24T07:30:35;95500.72;;;18.19;68.58
68141;BME280;54941;52.220;104.306;2023-06-24T07:33:01;95508.38;;;18.11;67.86
68141;BME280;54941;52.220;104.306;2023-06-24T07:35:27;95503.66;;;17.87;69.28
68141;BME280;54941;52.220;104.306;2023-06-24T07:37:53;95496.28;;;17.91;70.80
68141;BME280;54941;52.220;104.306;2023-06-24T07:40:20;95495.31;;;18.06;69.72
68141;BME280;54941;52.220;104.306;2023-06-24T07:42:46;95486.97;;;17.84;71.50
68141;BME280;54941;52.220;104.306;2023-06-24T07:45:13;95496.78;;;18.24;68.70
68141;BME280;54941;52.220;104.306;2023-06-24T07:47:40;95487.00;;;18.11;69.49
68141;BME280;54941;52.220;104.306;2023-06-24T07:50:07;95485.44;;;18.21;67.45
68141;BME280;54941;52.220;104.306;2023-06-24T07:52:33;95480.00;;;18.62;67.44
68141;BME280;54941;52.220;104.306;2023-06-24T07:54:59;95483.31;;;18.53;66.44
68141;BME280;54941;52.220;104.306;2023-06-24T07:57:27;95485.53;;;18.19;68.63
68141;BME280;54941;52.220;104.306;2023-06-24T07:59:53;95493.69;;;18.57;66.00
68141;BME280;54941;52.220;104.306;2023-06-24T08:02:19;95491.19;;;18.69;65.23
68141;BME280;54941;52.220;104.306;2023-06-24T08:04:47;95483.38;;;18.51;66.02
68141;BME280;54941;52.220;104.306;2023-06-24T08:07:13;95472.53;;;18.40;68.06
68141;BME280;54941;52.220;104.306;2023-06-24T08:09:40;95476.44;;;18.76;65.51
68141;BME280;54941;52.220;104.306;2023-06-24T08:12:07;95479.56;;;19.46;61.85
68141;BME280;54941;52.220;104.306;2023-06-24T08:14:33;95479.91;;;19.16;63.86
68141;BME280;54941;52.220;104.306;2023-06-24T08:16:59;95485.78;;;18.56;65.39
68141;BME280;54941;52.220;104.306;2023-06-24T08:19:26;95487.38;;;18.58;66.29
68141;BME280;54941;52.220;104.306;2023-06-24T08:21:53;95482.59;;;18.10;68.10
68141;BME280;54941;52.220;104.306;2023-06-24T08:24:20;95485.16;;;17.70;68.92
68141;BME280;54941;52.220;104.306;2023-06-24T08:26:46;95488.84;;;17.82;69.06
68141;BME280;54941;52.220;104.306;2023-06-24T08:29:12;95477.38;;;18.08;67.37
68141;BME280;54941;52.220;104.306;2023-06-24T08:31:39;95479.22;;;17.65;69.12
68141;BME280;54941;52.220;104.306;2023-06-24T08:34:05;95477.09;;;17.98;68.33
68141;BME280;54941;52.220;104.306;2023-06-24T08:36:32;95478.53;;;17.90;68.67
68141;BME280;54941;52.220;104.306;2023-06-24T08:38:59;95475.72;;;18.05;67.48
68141;BME280;54941;52.220;104.306;2023-06-24T08:41:26;95476.81;;;18.30;68.13
68141;BME280;54941;52.220;104.306;2023-06-24T08:43:52;95479.63;;;18.14;67.55
68141;BME280;54941;52.220;104.306;2023-06-24T08:46:19;95488.34;;;18.57;66.17
68141;BME280;54941;52.220;104.306;2023-06-24T08:48:48;95492.63;;;18.60;66.26
68141;BME280;54941;52.220;104.306;2023-06-24T08:51:18;95491.19;;;18.42;66.51
68141;BME280;54941;52.220;104.306;2023-06-24T08:53:48;95502.22;;;18.50;65.82
68141;BME280;54941;52.220;104.306;2023-06-24T08:56:16;95501.09;;;18.40;66.53
68141;BME280;54941;52.220;104.306;2023-06-24T08:58:43;95502.38;;;18.07;67.91
68141;BME280;54941;52.220;104.306;2023-06-24T09:01:10;95505.41;;;18.42;66.10
68141;BME280;54941;52.220;104.306;2023-06-24T09:03:37;95505.44;;;18.28;67.12
68141;BME280;54941;52.220;104.306;2023-06-24T09:06:03;95504.38;;;18.18;67.76
68141;BME280;54941;52.220;104.306;2023-06-24T09:08:29;95514.72;;;18.49;65.98
68141;BME280;54941;52.220;104.306;2023-06-24T09:10:56;95510.50;;;18.32;66.99
68141;BME280;54941;52.220;104.306;2023-06-24T09:13:28;95519.59;;;17.32;70.59
68141;BME280;54941;52.220;104.306;2023-06-24T09:15:59;95515.38;;;17.99;68.82
68141;BME280;54941;52.220;104.306;2023-06-24T09:18:32;95517.56;;;18.33;67.53
68141;BME280;54941;52.220;104.306;2023-06-24T09:20:58;95520.25;;;17.92;69.36
68141;BME280;54941;52.220;104.306;2023-06-24T09:23:26;95520.09;;;18.22;67.64
68141;BME280;54941;52.220;104.306;2023-06-24T09:25:56;95525.97;;;18.00;69.39
68141;BME280;54941;52.220;104.306;2023-06-24T09:28:26;95526.03;;;18.13;67.43
68141;BME280;54941;52.220;104.306;2023-06-24T09:31:05;95521.38;;;18.71;66.59
68141;BME280;54941;52.220;104.306;2023-06-24T09:33:31;95502.22;;;18.50;66.87
68141;BME280;54941;52.220;104.306;2023-06-24T09:35:58;95508.75;;;18.46;67.50
68141;BME280;54941;52.220;104.306;2023-06-24T09:38:32;95501.97;;;18.40;67.34
68141;BME280;54941;52.220;104.306;2023-06-24T09:41:02;95511.88;;;18.79;65.65
68141;BME280;54941;52.220;104.306;2023-06-24T09:43:31;95507.44;;;18.65;67.05
68141;BME280;54941;52.220;104.306;2023-06-24T09:46:00;95503.25;;;19.14;64.18
68141;BME280;54941;52.220;104.306;2023-06-24T09:48:27;95496.75;;;18.51;66.25
68141;BME280;54941;52.220;104.306;2023-06-24T09:50:54;95498.19;;;18.57;66.52
68141;BME280;54941;52.220;104.306;2023-06-24T09:53:22;95497.59;;;18.66;66.24
68141;BME280;54941;52.220;104.306;2023-06-24T09:55:49;95495.31;;;18.33;67.36
68141;BME280;54941;52.220;104.306;2023-06-24T09:58:17;95492.53;;;18.34;67.91
68141;BME280;54941;52.220;104.306;2023-06-24T10:00:48;95493.91;;;18.54;66.05
68141;BME280;54941;52.220;104.306;2023-06-24T10:03:15;95501.38;;;18.22;67.10
68141;BME280;54941;52.220;104.306;2023-06-24T10:05:42;95486.03;;;18.12;67.98
68141;BME280;54941;52.220;104.306;2023-06-24T10:08:09;95474.91;;;18.32;67.52
68141;BME280;54941;52.220;104.306;2023-06-24T10:10:36;95483.63;;;18.61;65.94
68141;BME280;54941;52.220;104.306;2023-06-24T10:13:02;95473.72;;;18.36;66.36
68141;BME280;54941;52.220;104.306;2023-06-24T10:15:29;95473.69;;;18.23;67.11
68141;BME280;54941;52.220;104.306;2023-06-24T10:18:01;95472.66;;;18.65;66.03
68141;BME280;54941;52.220;104.306;2023-06-24T10:20:28;95467.16;;;18.54;66.30
68141;BME280;54941;52.220;104.306;2023-06-24T10:22:54;95459.06;;;18.69;65.46
68141;BME280;54941;52.220;104.306;2023-06-24T10:25:20;95457.06;;;18.45;66.34
68141;BME280;54941;52.220;104.306;2023-06-24T10:27:53;95456.47;;;18.00;67.82
68141;BME280;54941;52.220;104.306;2023-06-24T10:30:20;95455.28;;;18.19;67.20
68141;BME280;54941;52.220;104.306;2023-06-24T10:32:51;95463.38;;;18.17;67.91
68141;BME280;54941;52.220;104.306;2023-06-24T10:35:27;95459.38;;;18.37;67.44
68141;BME280;54941;52.220;104.306;2023-06-24T10:37:57;95462.88;;;18.25;66.91
68141;BME280;54941;52.220;104.306;2023-06-24T10:40:37;95463.03;;;18.09;67.82
68141;BME280;54941;52.220;104.306;2023-06-24T10:43:28;95460.63;;;18.19;67.51
68141;BME280;54941;52.220;104.306;2023-06-24T10:45:55;95459.34;;;18.24;67.59
68141;BME280;54941;52.220;104.306;2023-06-24T10:48:22;95463.78;;;18.38;67.11
68141;BME280;54941;52.220;104.306;2023-06-24T10:50:50;95456.88;;;18.21;67.59
68141;BME280;54941;52.220;104.306;2023-06-24T10:53:17;95459.22;;;18.53;66.52
68141;BME280;54941;52.220;104.306;2023-06-24T10:55:44;95457.72;;;18.61;66.78
68141;BME280;54941;52.220;104.306;2023-06-24T10:58:11;95462.97;;;18.90;64.86
68141;BME280;54941;52.220;104.306;2023-06-24T11:00:38;95467.03;;;19.08;64.21
68141;BME280;54941;52.220;104.306;2023-06-24T11:03:08;95464.47;;;19.45;63.13
68141;BME280;54941;52.220;104.306;2023-06-24T11:05:36;95462.94;;;19.53;63.45
68141;BME280;54941;52.220;104.306;2023-06-24T11:08:05;95470.66;;;18.94;64.23
68141;BME280;54941;52.220;104.306;2023-06-24T11:10:31;95476.13;;;18.93;64.13
68141;BME280;54941;52.220;104.306;2023-06-24T11:12:57;95482.00;;;18.85;64.80
68141;BME280;54941;52.220;104.306;2023-06-24T11:15:31;95483.53;;;19.02;64.13
68141;BME280;54941;52.220;104.306;2023-06-24T11:17:58;95493.78;;;18.83;64.78
68141;BME280;54941;52.220;104.306;2023-06-24T11:20:24;95499.00;;;18.72;65.80
68141;BME280;54941;52.220;104.306;2023-06-24T11:22:50;95507.06;;;18.97;64.49
68141;BME280;54941;52.220;104.306;2023-06-24T11:25:19;95517.09;;;18.68;64.93
68141;BME280;54941;52.220;104.306;2023-06-24T11:27:46;95526.09;;;18.80;65.00
68141;BME280;54941;52.220;104.306;2023-06-24T11:30:13;95534.34;;;18.62;65.53
68141;BME280;54941;52.220;104.306;2023-06-24T11:32:41;95532.97;;;18.30;67.05
68141;BME280;54941;52.220;104.306;2023-06-24T11:35:09;95532.72;;;18.47;66.34
68141;BME280;54941;52.220;104.306;2023-06-24T11:37:35;95537.47;;;18.29;67.61
68141;BME280;54941;52.220;104.306;2023-06-24T11:40:03;95537.56;;;18.14;68.56
68141;BME280;54941;52.220;104.306;2023-06-24T11:42:36;95543.06;;;17.98;69.26
68141;BME280;54941;52.220;104.306;2023-06-24T11:45:03;95545.25;;;17.91;69.28
68141;BME280;54941;52.220;104.306;2023-06-24T11:47:32;95542.97;;;17.99;68.59
68141;BME280;54941;52.220;104.306;2023-06-24T11:49:59;95541.53;;;17.94;68.97
68141;BME280;54941;52.220;104.306;2023-06-24T11:52:47;95548.22;;;17.87;69.24
68141;BME280;54941;52.220;104.306;2023-06-24T11:55:16;95543.16;;;17.82;69.38
68141;BME280;54941;52.220;104.306;2023-06-24T11:57:55;95540.97;;;17.89;69.26
68141;BME280;54941;52.220;104.306;2023-06-24T12:00:23;95547.56;;;17.97;69.13
68141;BME280;54941;52.220;104.306;2023-06-24T12:02:51;95549.00;;;18.30;67.30
68141;BME280;54941;52.220;104.306;2023-06-24T12:05:25;95543.84;;;18.27;67.64
68141;BME280;54941;52.220;104.306;2023-06-24T12:07:55;95532.66;;;18.07;68.01
68141;BME280;54941;52.220;104.306;2023-06-24T12:10:21;95527.31;;;17.79;69.48
68141;BME280;54941;52.220;104.306;2023-06-24T12:12:47;95529.78;;;17.82;69.53
68141;BME280;54941;52.220;104.306;2023-06-24T12:15:15;95519.88;;;17.70;69.62
68141;BME280;54941;52.220;104.306;2023-06-24T12:17:41;95515.50;;;17.55;70.10
68141;BME280;54941;52.220;104.306;2023-06-24T12:20:08;95516.84;;;17.62;70.06
68141;BME280;54941;52.220;104.306;2023-06-24T12:22:35;95508.25;;;17.42;70.91
68141;BME280;54941;52.220;104.306;2023-06-24T12:25:02;95508.81;;;17.19;72.12
68141;BME280;54941;52.220;104.306;2023-06-24T12:27:30;95498.75;;;16.94;73.46
68141;BME280;54941;52.220;104.306;2023-06-24T12:29:57;95490.81;;;16.78;74.13
68141;BME280;54941;52.220;104.306;2023-06-24T12:32:26;95487.97;;;16.66;75.19
68141;BME280;54941;52.220;104.306;2023-06-24T12:34:53;95484.88;;;16.43;77.05
68141;BME280;54941;52.220;104.306;2023-06-24T12:37:19;95484.56;;;16.33;77.58
68141;BME280;54941;52.220;104.306;2023-06-24T12:39:45;95494.81;;;16.25;78.24
68141;BME280;54941;52.220;104.306;2023-06-24T12:42:12;95501.44;;;16.18;79.10